Time;durP1;ratioP1;P1;durP2;ratioP2;P2;SDS_P1;SDS_P2;PMS_P1;PMS_P2;Temp;Humidity;BMP_temperature;BMP_pressure;BME280_temperature;BME280_humidity;BME280_pressure;Samples;Min_cycle;Max_cycle;Signal;HPM_P1;HPM_P2
2022/03/02 00:00:33;;;;;;;4.72;2.55;;;21.20;40.20;;;;;;4878968;29;20060;-80
2022/03/02 00:02:59;;;;;;;5.18;2.58;;;21.20;40.20;;;;;;4879385;29;20484;-80
2022/03/02 00:05:24;;;;;;;4.28;2.40;;;21.20;40.20;;;;;;4879029;29;20053;-79
2022/03/02 00:07:51;;;;;;;5.45;2.97;;;21.20;40.30;;;;;;4879106;29;20059;-80
2022/03/02 00:10:16;;;;;;;5.10;2.63;;;21.20;40.30;;;;;;4879270;29;20567;-79
2022/03/02 00:12:42;;;;;;;5.00;2.63;;;21.20;40.30;;;;;;4879537;29;20135;-80
2022/03/02 00:15:08;;;;;;;5.28;2.58;;;21.20;40.30;;;;;;4879180;29;20066;-80
2022/03/02 00:17:34;;;;;;;4.32;2.20;;;21.20;40.30;;;;;;4879277;29;20041;-80
2022/03/02 00:19:59;;;;;;;4.60;2.65;;;21.20;40.30;;;;;;4879113;29;20055;-79
2022/03/02 00:22:25;;;;;;;5.10;2.65;;;21.20;40.30;;;;;;4878624;29;20160;-79
2022/03/02 00:24:51;;;;;;;4.30;2.63;;;20.80;40.10;;;;;;4879129;29;20071;-79
2022/03/02 00:27:22;;;;;;;4.38;2.85;;;21.10;40.40;;;;;;4878402;29;20052;-79
2022/03/02 00:29:48;;;;;;;6.65;2.60;;;21.10;40.40;;;;;;4879239;29;20409;-79
2022/03/02 00:32:14;;;;;;;4.65;2.55;;;21.10;40.30;;;;;;4878626;29;20052;-80
2022/03/02 00:34:39;;;;;;;5.25;2.60;;;21.10;40.40;;;;;;4878269;29;20050;-80
2022/03/02 00:37:06;;;;;;;5.80;2.70;;;21.10;40.40;;;;;;4879166;29;20056;-80
2022/03/02 00:39:32;;;;;;;4.50;2.83;;;21.10;40.40;;;;;;4878329;29;20057;-80
2022/03/02 00:41:57;;;;;;;4.45;2.30;;;21.10;40.40;;;;;;4877973;29;20796;-80
2022/03/02 00:44:23;;;;;;;5.78;2.70;;;22.20;41.00;;;;;;4878814;29;20044;-80
2022/03/02 00:46:48;;;;;;;4.43;2.60;;;21.10;40.40;;;;;;4878687;29;20049;-80
2022/03/02 00:49:14;;;;;;;5.00;2.85;;;21.00;40.40;;;;;;4895118;29;20048;-79
2022/03/02 00:51:40;;;;;;;5.68;2.65;;;21.00;40.40;;;;;;4879061;29;20139;-79
2022/03/02 00:54:06;;;;;;;7.43;3.45;;;21.00;40.50;;;;;;4878655;29;20061;-79
2022/03/02 00:56:31;;;;;;;4.82;2.40;;;21.00;40.40;;;;;;4878292;29;20064;-79
2022/03/02 00:58:57;;;;;;;4.53;2.35;;;21.00;40.40;;;;;;4895465;29;20079;-79
2022/03/02 01:01:22;;;;;;;5.40;3.05;;;21.00;40.40;;;;;;4878466;29;20059;-80
2022/03/02 01:03:49;;;;;;;4.10;2.28;;;21.00;40.50;;;;;;4894967;29;20373;-80
2022/03/02 01:06:14;;;;;;;5.32;2.60;;;21.00;40.50;;;;;;4878759;29;20136;-80
2022/03/02 01:08:40;;;;;;;5.50;2.60;;;21.00;40.50;;;;;;4878201;29;20139;-80
2022/03/02 01:11:06;;;;;;;5.32;2.70;;;21.00;40.50;;;;;;4877989;29;20127;-80
2022/03/02 01:13:31;;;;;;;4.38;2.50;;;21.00;40.50;;;;;;4878689;29;20107;-79
2022/03/02 01:15:57;;;;;;;5.22;2.40;;;20.90;40.50;;;;;;4878423;29;20052;-80
2022/03/02 01:18:22;;;;;;;4.65;2.67;;;21.00;40.60;;;;;;4878144;29;20055;-80
2022/03/02 01:20:48;;;;;;;4.85;2.42;;;20.90;40.50;;;;;;4878500;29;20720;-80
2022/03/02 01:23:13;;;;;;;5.50;3.08;;;20.90;40.50;;;;;;4878151;29;20164;-80
2022/03/02 01:25:39;;;;;;;4.07;2.50;;;20.90;40.50;;;;;;4894864;29;20056;-80
2022/03/02 01:28:04;;;;;;;4.32;2.47;;;20.90;40.60;;;;;;4878674;29;20052;-80
2022/03/02 01:30:30;;;;;;;4.07;2.28;;;20.90;40.50;;;;;;4878036;29;20056;-79
2022/03/02 01:32:56;;;;;;;5.38;2.70;;;21.10;40.70;;;;;;4895174;29;20472;-80
2022/03/02 01:35:21;;;;;;;4.90;2.92;;;20.90;40.60;;;;;;4878078;29;20048;-80
2022/03/02 01:37:47;;;;;;;5.20;2.83;;;20.90;40.60;;;;;;4894541;29;20064;-79
2022/03/02 01:40:13;;;;;;;5.10;2.25;;;20.90;40.60;;;;;;4878305;29;20048;-79
2022/03/02 01:42:39;;;;;;;4.78;2.67;;;20.80;40.60;;;;;;4878310;29;20497;-80
2022/03/02 01:45:05;;;;;;;4.32;2.83;;;20.80;40.60;;;;;;4877975;29;20147;-80
2022/03/02 01:47:31;;;;;;;4.43;2.42;;;20.80;40.60;;;;;;4878198;29;20080;-79
2022/03/02 01:49:56;;;;;;;4.63;2.42;;;20.80;40.60;;;;;;4878369;29;20080;-80
2022/03/02 01:52:22;;;;;;;4.43;2.60;;;20.80;40.60;;;;;;4878251;29;20060;-79
2022/03/02 01:54:48;;;;;;;4.68;2.70;;;20.80;40.60;;;;;;4879825;29;20492;-79
2022/03/02 01:57:14;;;;;;;4.88;2.83;;;20.80;40.60;;;;;;4881857;29;20100;-79
2022/03/02 01:59:39;;;;;;;5.55;2.85;;;20.80;40.60;;;;;;4881149;29;20056;-79
2022/03/02 02:02:05;;;;;;;3.83;2.38;;;20.80;40.70;;;;;;4881542;29;20063;-79
2022/03/02 02:04:31;;;;;;;4.70;2.47;;;20.80;40.70;;;;;;4881518;29;20504;-80
2022/03/02 02:06:56;;;;;;;4.63;2.55;;;20.80;40.70;;;;;;4896773;29;20127;-80
2022/03/02 02:09:22;;;;;;;3.75;2.50;;;20.80;40.70;;;;;;4881632;29;20484;-79
2022/03/02 02:11:48;;;;;;;5.30;2.97;;;20.70;40.60;;;;;;4881218;29;20058;-79
2022/03/02 02:14:13;;;;;;;5.60;2.65;;;20.70;40.70;;;;;;4880818;29;20176;-80
2022/03/02 02:16:39;;;;;;;4.63;2.25;;;20.70;40.70;;;;;;4881511;29;20093;-79
2022/03/02 02:19:04;;;;;;;4.38;2.58;;;20.70;40.70;;;;;;4881198;29;20048;-79
2022/03/02 02:21:30;;;;;;;4.07;2.35;;;20.70;40.70;;;;;;4897811;29;20056;-79
2022/03/02 02:23:55;;;;;;;4.40;2.58;;;20.70;40.70;;;;;;4881096;29;20052;-79
2022/03/02 02:26:21;;;;;;;4.68;2.95;;;20.70;40.70;;;;;;4880982;29;20515;-79
2022/03/02 02:28:47;;;;;;;3.88;2.33;;;20.70;40.80;;;;;;4880831;29;20044;-79
2022/03/02 02:31:13;;;;;;;5.25;2.88;;;20.70;40.80;;;;;;4880970;29;20071;-79
2022/03/02 02:33:38;;;;;;;5.15;2.85;;;20.70;40.80;;;;;;4880857;29;20040;-79
2022/03/02 02:36:04;;;;;;;4.70;2.47;;;20.70;40.80;;;;;;4880529;29;20108;-79
2022/03/02 02:38:30;;;;;;;4.40;2.33;;;20.70;40.80;;;;;;4880672;29;20067;-79
2022/03/02 02:40:55;;;;;;;3.83;2.35;;;20.70;40.80;;;;;;4880389;29;20060;-79
2022/03/02 02:43:23;;;;;;;4.60;2.30;;;20.60;40.70;;;;;;4897666;29;20048;-79
2022/03/02 02:45:48;;;;;;;4.53;2.30;;;20.70;40.80;;;;;;4880792;29;20067;-79
2022/03/02 02:48:14;;;;;;;4.43;2.70;;;20.60;40.80;;;;;;4880287;29;20044;-79
2022/03/02 02:50:39;;;;;;;5.05;2.65;;;20.60;40.80;;;;;;4880781;29;20071;-79
2022/03/02 02:53:07;;;;;;;4.47;2.75;;;20.60;40.80;;;;;;4880743;29;20147;-79
2022/03/02 02:55:33;;;;;;;4.07;2.58;;;20.60;40.80;;;;;;4879856;29;20127;-79
2022/03/02 02:57:58;;;;;;;4.35;2.50;;;20.60;40.80;;;;;;4880744;29;20195;-79
2022/03/02 03:00:28;;;;;;;4.47;2.55;;;20.60;40.80;;;;;;4880201;29;20047;-79
2022/03/02 03:02:54;;;;;;;4.72;2.83;;;20.60;40.80;;;;;;4880068;29;20060;-79
2022/03/02 03:05:21;;;;;;;4.30;2.63;;;20.60;40.80;;;;;;4880443;29;20056;-79
2022/03/02 03:07:47;;;;;;;4.68;2.78;;;20.60;40.80;;;;;;4880224;29;20072;-79
2022/03/02 03:10:13;;;;;;;5.40;3.05;;;20.60;40.80;;;;;;4879924;29;20497;-79
2022/03/02 03:12:39;;;;;;;5.38;2.70;;;20.60;40.80;;;;;;4880632;29;20519;-79
2022/03/02 03:15:06;;;;;;;4.22;2.63;;;20.50;40.80;;;;;;4880347;29;20052;-79
2022/03/02 03:17:31;;;;;;;4.50;2.50;;;20.60;40.90;;;;;;4879674;29;20051;-79
2022/03/02 03:19:57;;;;;;;4.82;2.72;;;20.50;40.90;;;;;;4880275;29;20404;-79
2022/03/02 03:22:23;;;;;;;4.32;2.42;;;20.50;40.80;;;;;;4880086;29;20053;-79
2022/03/02 03:24:48;;;;;;;4.93;2.83;;;20.70;40.90;;;;;;4879661;29;20389;-79
2022/03/02 03:27:14;;;;;;;4.90;2.42;;;20.60;40.90;;;;;;4879965;29;20123;-79
2022/03/02 03:29:39;;;;;;;4.30;2.60;;;20.50;40.90;;;;;;4895663;29;20176;-79
2022/03/02 03:32:06;;;;;;;4.10;2.33;;;20.60;40.90;;;;;;4879605;29;20056;-79
2022/03/02 03:34:31;;;;;;;4.50;2.58;;;20.60;40.90;;;;;;4879961;29;20049;-79
2022/03/02 03:36:57;;;;;;;4.43;2.33;;;20.60;40.90;;;;;;4880122;29;20101;-80
2022/03/02 03:39:22;;;;;;;3.88;2.10;;;20.60;40.90;;;;;;4879339;29;20097;-79
2022/03/02 03:41:48;;;;;;;4.95;2.80;;;20.60;40.90;;;;;;4880022;29;20060;-79
2022/03/02 03:44:13;;;;;;;4.78;2.60;;;20.60;40.80;;;;;;4879355;29;20412;-79
2022/03/02 03:46:39;;;;;;;3.97;2.30;;;20.60;40.80;;;;;;4879873;29;20153;-79
2022/03/02 03:49:04;;;;;;;4.07;2.60;;;20.60;40.80;;;;;;4879428;29;20060;-79
2022/03/02 03:51:30;;;;;;;3.95;2.53;;;20.60;40.80;;;;;;4894668;29;20060;-79
2022/03/02 03:53:56;;;;;;;4.43;2.83;;;20.60;40.90;;;;;;4879644;29;20054;-80
2022/03/02 03:56:21;;;;;;;4.53;2.60;;;20.60;40.80;;;;;;4879481;29;20060;-80
2022/03/02 03:58:47;;;;;;;4.63;2.42;;;20.60;40.80;;;;;;4878801;29;20059;-79
2022/03/02 04:01:12;;;;;;;3.85;2.20;;;20.60;40.80;;;;;;4879426;29;20052;-80
2022/03/02 04:03:38;;;;;;;3.40;2.15;;;20.60;40.80;;;;;;4879190;29;20139;-80
2022/03/02 04:06:03;;;;;;;4.93;2.70;;;20.60;40.80;;;;;;4878845;29;20058;-79
2022/03/02 04:08:29;;;;;;;3.95;2.47;;;20.60;40.80;;;;;;4879627;29;20104;-80
2022/03/02 04:10:54;;;;;;;3.50;2.20;;;20.60;40.80;;;;;;4879149;29;20777;-79
2022/03/02 04:13:20;;;;;;;4.88;2.65;;;20.60;40.80;;;;;;4878690;29;20056;-79
2022/03/02 04:15:46;;;;;;;4.65;2.60;;;20.60;40.80;;;;;;4879006;29;20056;-79
2022/03/02 04:18:12;;;;;;;3.75;2.38;;;20.60;40.80;;;;;;4878547;29;20041;-80
2022/03/02 04:20:37;;;;;;;4.30;2.53;;;20.60;40.80;;;;;;4878520;29;20461;-80
2022/03/02 04:23:03;;;;;;;3.92;2.45;;;20.60;40.80;;;;;;4879009;29;20132;-79
2022/03/02 04:25:29;;;;;;;4.30;2.10;;;20.60;40.80;;;;;;4879159;29;20493;-79
2022/03/02 04:27:54;;;;;;;4.25;2.10;;;20.60;40.80;;;;;;4878473;29;20045;-79
2022/03/02 04:30:20;;;;;;;4.32;2.63;;;20.60;40.80;;;;;;4879167;29;20403;-79
2022/03/02 04:32:45;;;;;;;4.13;2.42;;;20.60;40.80;;;;;;4878695;29;20481;-79
2022/03/02 04:35:11;;;;;;;4.22;2.38;;;20.60;40.80;;;;;;4878722;29;20052;-79
2022/03/02 04:37:37;;;;;;;4.40;2.65;;;20.60;40.80;;;;;;4878498;29;20041;-79
2022/03/02 04:40:08;;;;;;;4.38;2.65;;;20.60;40.80;;;;;;4878777;29;20074;-79
2022/03/02 04:42:33;;;;;;;4.20;2.50;;;20.60;40.80;;;;;;4878218;29;20457;-79
2022/03/02 04:44:59;;;;;;;4.85;2.55;;;20.60;40.80;;;;;;4878593;29;20143;-79
2022/03/02 04:47:25;;;;;;;4.45;2.50;;;20.60;40.80;;;;;;4878462;29;20048;-79
2022/03/02 04:49:51;;;;;;;5.13;2.50;;;20.60;40.80;;;;;;4895582;29;20453;-80
2022/03/02 04:52:17;;;;;;;4.80;2.83;;;20.60;40.80;;;;;;4878488;29;20044;-80
2022/03/02 04:57:27;;;;;;;4.63;2.40;;;20.60;40.80;;;;;;4878584;29;20057;-80
2022/03/02 04:59:52;;;;;;;5.07;2.55;;;21.50;41.40;;;;;;4878328;29;20048;-79
2022/03/02 05:02:18;;;;;;;3.95;2.22;;;20.60;40.90;;;;;;4878013;29;20080;-79
2022/03/02 05:04:43;;;;;;;3.67;2.33;;;20.50;40.80;;;;;;4878611;29;20080;-80
2022/03/02 05:07:09;;;;;;;3.90;2.22;;;20.50;40.90;;;;;;4878591;29;20071;-79
2022/03/02 05:09:35;;;;;;;4.15;2.55;;;20.50;40.80;;;;;;4878205;29;20712;-79
2022/03/02 05:12:02;;;;;;;3.97;2.55;;;20.50;40.80;;;;;;4878512;29;20160;-79
2022/03/02 05:14:29;;;;;;;4.15;2.40;;;20.50;40.80;;;;;;4878668;29;20095;-79
2022/03/02 05:16:54;;;;;;;4.10;2.42;;;21.70;41.50;;;;;;4878448;29;20412;-79
2022/03/02 05:19:20;;;;;;;4.65;2.53;;;20.50;40.80;;;;;;4878708;29;20059;-79
2022/03/02 05:21:46;;;;;;;4.25;2.42;;;20.60;40.90;;;;;;4878349;29;20053;-79
2022/03/02 05:24:11;;;;;;;3.88;2.38;;;20.60;40.90;;;;;;4878064;29;20096;-79
2022/03/02 05:26:37;;;;;;;3.28;2.00;;;20.60;40.90;;;;;;4878409;29;20048;-79
2022/03/02 05:29:02;;;;;;;4.93;2.33;;;20.60;40.90;;;;;;4896872;29;20049;-79
2022/03/02 05:31:28;;;;;;;4.18;2.60;;;20.70;40.90;;;;;;4882055;29;20049;-80
2022/03/02 05:33:53;;;;;;;4.13;2.42;;;20.60;40.80;;;;;;4882187;29;20552;-79
2022/03/02 05:36:19;;;;;;;6.35;2.70;;;20.60;40.80;;;;;;4882113;29;20055;-79
2022/03/02 05:38:44;;;;;;;3.72;2.10;;;20.60;40.80;;;;;;4881276;29;20151;-79
2022/03/02 05:41:10;;;;;;;4.30;2.33;;;20.60;40.80;;;;;;4881691;29;20068;-79
2022/03/02 05:43:36;;;;;;;4.25;2.35;;;20.60;40.80;;;;;;4881289;29;20416;-79
2022/03/02 05:46:02;;;;;;;5.40;2.55;;;20.60;40.80;;;;;;4881964;29;20059;-79
2022/03/02 05:48:28;;;;;;;4.18;2.42;;;20.60;40.80;;;;;;4881649;29;20048;-80
2022/03/02 05:50:53;;;;;;;5.05;2.13;;;20.60;40.80;;;;;;4881447;29;20040;-79
2022/03/02 05:53:19;;;;;;;4.45;2.30;;;20.70;40.90;;;;;;4881923;29;20109;-79
2022/03/02 05:55:44;;;;;;;3.22;2.00;;;20.70;40.90;;;;;;4881580;29;20515;-79
2022/03/02 05:58:10;;;;;;;3.40;2.15;;;20.70;40.90;;;;;;4881275;29;20112;-80
2022/03/02 06:00:36;;;;;;;3.58;2.20;;;20.70;40.80;;;;;;4881443;29;20064;-79
2022/03/02 06:03:02;;;;;;;4.00;2.40;;;20.70;40.80;;;;;;4898396;29;20810;-79
2022/03/02 06:05:28;;;;;;;4.20;2.28;;;20.70;40.90;;;;;;4881022;29;20060;-80
2022/03/02 06:07:53;;;;;;;4.47;2.40;;;20.80;40.90;;;;;;4881298;29;20093;-79
2022/03/02 06:10:19;;;;;;;3.70;2.22;;;20.80;40.80;;;;;;4881276;29;20055;-79
2022/03/02 06:12:46;;;;;;;3.65;2.38;;;20.80;40.80;;;;;;4881165;29;20849;-79
2022/03/02 06:15:12;;;;;;;3.75;2.15;;;20.80;40.80;;;;;;4881162;29;20064;-81
2022/03/02 06:17:38;;;;;;;3.70;2.00;;;20.80;40.80;;;;;;4881556;29;20405;-81
2022/03/02 06:20:05;;;;;;;4.00;2.42;;;20.80;40.80;;;;;;4881005;29;20068;-80
2022/03/02 06:22:31;;;;;;;3.70;2.35;;;20.80;40.80;;;;;;4881268;29;20504;-80
2022/03/02 06:24:57;;;;;;;4.13;2.10;;;20.90;40.80;;;;;;4897977;29;20044;-80
2022/03/02 06:27:22;;;;;;;3.45;2.25;;;20.90;40.80;;;;;;4880554;29;20040;-80
2022/03/02 06:29:48;;;;;;;4.05;2.08;;;20.90;40.80;;;;;;4880000;29;20059;-80
2022/03/02 06:32:14;;;;;;;3.33;2.00;;;20.90;40.80;;;;;;4880067;29;20052;-79
2022/03/02 06:34:40;;;;;;;4.15;2.50;;;20.90;40.80;;;;;;4875792;29;20052;-81
2022/03/02 06:37:05;;;;;;;3.92;2.40;;;21.30;41.00;;;;;;4862501;29;20049;-81
2022/03/02 06:39:31;;;;;;;5.30;2.25;;;20.90;40.80;;;;;;4863632;29;20060;-81
2022/03/02 06:42:15;;;;;;;4.05;2.05;;;22.10;41.40;;;;;;4851061;29;20066;-81
2022/03/02 06:45:04;;;;;;;3.80;2.25;;;20.90;40.70;;;;;;4881073;29;20055;-81
2022/03/02 06:47:32;;;;;;;4.28;2.40;;;21.00;40.70;;;;;;4876809;29;20068;-81
2022/03/02 06:50:08;;;;;;;3.40;1.90;;;21.00;40.70;;;;;;4880075;29;20048;-81
2022/03/02 06:52:41;;;;;;;3.45;2.10;;;21.00;40.70;;;;;;4880523;29;20135;-80
2022/03/02 06:55:12;;;;;;;3.88;2.20;;;21.00;40.70;;;;;;4879781;29;20097;-80
2022/03/02 06:57:37;;;;;;;3.58;2.20;;;21.00;40.70;;;;;;4877704;29;20084;-80
2022/03/02 07:00:08;;;;;;;3.75;2.10;;;21.00;40.70;;;;;;4878920;29;20087;-80
2022/03/02 07:02:38;;;;;;;4.20;2.40;;;21.00;40.70;;;;;;4876876;29;20061;-80
2022/03/02 07:05:05;;;;;;;4.05;2.10;;;21.00;40.70;;;;;;4864080;29;20057;-80
2022/03/02 07:07:31;;;;;;;3.50;1.90;;;21.00;40.70;;;;;;4880257;29;20129;-80
2022/03/02 07:09:56;;;;;;;4.00;2.30;;;21.00;40.70;;;;;;4875954;29;20061;-80
2022/03/02 07:12:22;;;;;;;4.00;2.20;;;21.00;40.70;;;;;;4850923;29;20172;-81
2022/03/02 07:14:47;;;;;;;4.03;2.45;;;21.00;41.50;;;;;;4846266;29;20121;-80
2022/03/02 07:17:13;;;;;;;4.90;2.47;;;21.10;40.80;;;;;;4864603;29;20056;-81
2022/03/02 07:19:39;;;;;;;3.65;2.20;;;21.10;40.80;;;;;;4879877;29;20044;-81
2022/03/02 07:22:05;;;;;;;3.50;2.17;;;21.10;40.70;;;;;;4862225;29;20049;-81
2022/03/02 07:24:38;;;;;;;4.65;2.28;;;21.10;40.80;;;;;;4863480;29;20138;-80
2022/03/02 07:27:04;;;;;;;4.22;2.60;;;21.40;40.90;;;;;;4879462;29;20135;-80
2022/03/02 07:29:29;;;;;;;3.88;2.28;;;21.10;40.70;;;;;;4876874;29;20119;-80
2022/03/02 07:31:56;;;;;;;4.65;2.30;;;21.10;40.70;;;;;;4849502;29;20473;-80
2022/03/02 07:34:21;;;;;;;6.55;4.03;;;21.10;40.70;;;;;;4895400;29;20047;-80
2022/03/02 07:36:47;;;;;;;15.30;9.35;;;21.80;41.00;;;;;;4849785;29;20049;-80
2022/03/02 07:39:13;;;;;;;15.70;7.63;;;21.10;40.40;;;;;;4876298;29;20092;-80
2022/03/02 07:41:38;;;;;;;11.05;6.28;;;21.10;40.50;;;;;;4870796;29;20052;-80
2022/03/02 07:44:04;;;;;;;11.70;6.55;;;21.00;40.50;;;;;;4879430;29;20045;-80
2022/03/02 08:12:24;;;;;;;11.98;6.32;;;20.70;41.00;;;;;;5029128;23;20053;-79
2022/03/02 08:14:49;;;;;;;13.05;6.40;;;21.00;41.20;;;;;;4895544;29;20040;-79
2022/03/02 08:17:20;;;;;;;9.75;6.35;;;20.60;41.00;;;;;;4864011;29;20060;-79
2022/03/02 08:19:54;;;;;;;12.23;7.30;;;21.30;41.30;;;;;;4863903;29;20135;-78
2022/03/02 08:22:45;;;;;;;12.35;7.93;;;20.60;41.30;;;;;;4896814;29;20056;-79
2022/03/02 08:25:48;;;;;;;10.20;6.43;;;21.50;42.30;;;;;;4879476;29;20108;-78
2022/03/02 08:28:20;;;;;;;19.75;6.93;;;20.40;41.40;;;;;;4895477;29;20060;-75
2022/03/02 08:34:38;;;;;;;12.13;7.00;;;18.40;40.70;;;;;;4835666;29;20097;-80
2022/03/02 08:37:38;;;;;;;11.70;7.05;;;21.60;42.60;;;;;;4990332;23;20047;-76
2022/03/02 08:40:23;;;;;;;12.52;6.68;;;20.40;41.80;;;;;;4904861;29;20581;-80
2022/03/02 08:43:08;;;;;;;13.57;6.30;;;20.50;41.90;;;;;;4928605;29;20051;-80
2022/03/02 08:46:05;;;;;;;13.85;6.57;;;22.00;43.20;;;;;;4894764;29;20055;-80
2022/03/02 08:52:48;;;;;;;12.60;7.78;;;20.40;41.50;;;;;;4979399;23;20056;-78
2022/03/02 09:00:54;;;;;;;11.43;7.05;;;20.40;42.00;;;;;;5848971;23;20044;-80
2022/03/02 09:03:25;;;;;;;11.93;6.50;;;20.40;42.10;;;;;;4897846;29;20080;-82
2022/03/02 09:05:51;;;;;;;13.02;9.23;;;20.30;41.90;;;;;;4886525;29;20048;-81
2022/03/02 09:08:16;;;;;;;21.70;12.40;;;20.40;41.70;;;;;;4870606;29;20081;-82
2022/03/02 09:10:42;;;;;;;20.00;13.20;;;20.30;39.70;;;;;;4902479;29;20088;-82
2022/03/02 09:13:11;;;;;;;18.60;13.05;;;20.30;39.00;;;;;;4887484;29;20059;-82
2022/03/02 09:16:02;;;;;;;19.15;13.70;;;20.20;38.40;;;;;;4888393;29;20092;-81
2022/03/02 09:18:36;;;;;;;30.20;11.02;;;20.20;37.90;;;;;;4866892;29;20492;-80
2022/03/02 09:21:58;;;;;;;13.98;10.30;;;18.80;38.70;;;;;;4884698;29;20080;-80
2022/03/02 09:33:27;;;;;;;15.73;9.73;;;20.40;40.40;;;;;;4807898;29;20057;-80
2022/03/02 09:37:17;;;;;;;12.30;8.43;;;19.50;40.00;;;;;;4699409;30;20049;-80
2022/03/02 10:04:52;;;;;;;9.60;7.20;;;20.40;41.30;;;;;;5005054;28;20083;-79
2022/03/02 10:07:27;;;;;;;10.90;7.40;;;21.90;42.20;;;;;;5019496;28;20101;-80
2022/03/02 10:10:24;;;;;;;11.38;7.10;;;20.70;41.60;;;;;;5026070;28;20037;-81
2022/03/02 10:13:08;;;;;;;9.77;7.40;;;20.40;41.40;;;;;;5031322;28;20499;-80
2022/03/02 10:48:17;;;;;;;10.38;5.88;;;20.70;41.50;;;;;;5853698;22;20102;-80
2022/03/02 10:50:49;;;;;;;8.90;5.78;;;20.70;41.50;;;;;;5043869;28;20087;-79
2022/03/02 11:04:08;;;;;;;8.75;5.53;;;20.70;41.50;;;;;;5055762;28;20060;-76
2022/03/02 11:07:47;;;;;;;9.73;6.40;;;20.20;41.30;;;;;;5049040;28;20123;-77
2022/03/02 11:10:45;;;;;;;10.30;6.55;;;21.70;41.90;;;;;;5051358;28;20060;-77
2022/03/02 12:06:54;;;;;;;8.63;5.07;;;20.60;40.70;;;;;;5055216;28;20075;-84
2022/03/02 12:13:56;;;;;;;8.30;5.68;;;20.30;40.20;;;;;;5056852;28;20094;-83
2022/03/02 12:38:34;;;;;;;;;;;;;;;;;;;;;
2022/03/02 12:42:04;;;;;;;6.97;4.70;;;19.10;40.30;;;;;;4979816;28;20053;-83
2022/03/02 12:52:28;;;;;;;6.18;4.30;;;20.90;40.00;;;;;;5014022;28;20057;-83
2022/03/02 12:54:57;;;;;;;8.73;4.20;;;20.80;39.50;;;;;;5023171;28;20048;-83
2022/03/02 13:00:25;;;;;;;6.88;4.63;;;21.00;40.00;;;;;;5027246;28;20046;-83
2022/03/02 13:06:38;;;;;;;7.25;4.13;;;21.00;39.90;;;;;;6008327;22;20123;-81
2022/03/02 13:09:56;;;;;;;6.07;3.88;;;21.00;40.20;;;;;;5032882;28;20044;-82
2022/03/02 13:17:01;;;;;;;5.63;3.45;;;19.70;39.40;;;;;;4903257;29;20138;-81
2022/03/02 13:22:44;;;;;;;6.93;3.38;;;21.00;40.00;;;;;;5533437;22;20064;-82
2022/03/02 13:25:31;;;;;;;6.68;4.18;;;20.90;39.90;;;;;;5052366;28;20109;-82
2022/03/02 13:28:07;;;;;;;5.68;3.75;;;21.70;40.70;;;;;;5052285;28;20036;-80
2022/03/02 13:34:00;;;;;;;6.68;3.75;;;20.90;40.20;;;;;;5008288;28;20040;-81
2022/03/02 13:37:10;;;;;;;5.68;3.45;;;20.90;40.30;;;;;;5053073;28;20044;-81
2022/03/02 13:43:34;;;;;;;6.35;3.72;;;20.00;39.50;;;;;;4914263;29;20047;-81
2022/03/02 13:46:36;;;;;;;5.55;3.47;;;21.60;40.50;;;;;;4923425;29;20042;-82
2022/03/02 13:56:30;;;;;;;6.13;3.22;;;21.00;40.00;;;;;;4817799;29;20077;-82
2022/03/02 13:59:34;;;;;;;5.03;3.17;;;19.10;39.20;;;;;;4891921;29;20059;-81
2022/03/02 14:02:36;;;;;;;5.10;3.60;;;19.90;39.60;;;;;;4894851;29;20618;-81
2022/03/02 14:05:26;;;;;;;6.32;3.38;;;20.50;39.80;;;;;;4895145;29;20068;-81
2022/03/02 14:08:19;;;;;;;5.15;2.90;;;21.00;40.10;;;;;;4917186;28;20058;-81
2022/03/02 14:15:04;;;;;;;7.35;4.45;;;21.50;40.20;;;;;;4893775;29;20004;-80
2022/03/02 14:24:28;;;;;;;5.20;3.55;;;20.90;39.60;;;;;;5032509;28;20141;-81
2022/03/02 15:28:32;;;;;;;7.18;5.25;;;20.90;36.50;;;;;;5039341;28;20554;-81
2022/03/02 15:47:48;;;;;;;8.10;5.75;;;21.20;37.60;;;;;;5221847;22;20064;-78
2022/03/02 15:50:38;;;;;;;8.40;4.85;;;21.20;37.50;;;;;;5015267;28;20132;-78
2022/03/02 15:53:17;;;;;;;9.00;5.30;;;21.20;37.40;;;;;;5015088;28;20132;-78
2022/03/02 15:55:55;;;;;;;7.75;4.85;;;21.30;37.40;;;;;;5014685;28;20046;-78
2022/03/02 15:58:29;;;;;;;6.40;4.53;;;21.30;37.50;;;;;;5006280;28;20578;-78
2022/03/02 16:01:01;;;;;;;10.18;5.32;;;21.30;37.50;;;;;;5011476;28;20528;-78
2022/03/02 16:03:27;;;;;;;;;;;21.30;37.60;;;;;;5007306;28;20171;-78
2022/03/02 16:05:59;;;;;;;7.40;4.70;;;21.30;37.70;;;;;;5014907;28;19917;-78
2022/03/02 16:08:30;;;;;;;8.65;5.05;;;21.30;37.70;;;;;;5006163;28;20053;-77
2022/03/02 16:11:15;;;;;;;7.03;4.07;;;21.30;37.80;;;;;;5023530;28;20065;-78
2022/03/02 17:05:09;;;;;;;9.07;4.75;;;20.10;37.60;;;;;;5052322;28;20044;-78
2022/03/02 17:07:37;;;;;;;8.35;4.65;;;21.10;38.30;;;;;;5052580;28;20041;-78
2022/03/02 17:10:06;;;;;;;10.30;4.57;;;21.00;38.20;;;;;;5047937;28;20128;-79
2022/03/02 17:12:55;;;;;;;9.38;4.85;;;21.10;38.20;;;;;;5042202;28;20037;-79
2022/03/02 17:16:11;;;;;;;9.15;5.22;;;20.90;38.10;;;;;;5018401;28;20061;-79
2022/03/02 17:19:04;;;;;;;8.13;4.95;;;21.10;38.60;;;;;;5033083;28;20052;-79
2022/03/02 17:21:48;;;;;;;10.40;5.93;;;21.80;38.70;;;;;;5006381;28;20055;-79
2022/03/02 17:36:08;;;;;;;8.25;4.80;;;21.10;38.80;;;;;;4989245;28;20041;-80
2022/03/02 17:47:29;;;;;;;9.55;5.05;;;21.00;39.20;;;;;;5316109;22;20065;-81
2022/03/02 17:56:01;;;;;;;8.35;4.75;;;21.00;39.40;;;;;;5131152;23;20075;-81
2022/03/02 17:58:29;;;;;;;8.18;4.75;;;21.00;39.40;;;;;;5030709;28;20056;-82
2022/03/02 18:04:31;;;;;;;7.57;4.05;;;21.00;39.50;;;;;;5386274;22;20068;-82
2022/03/02 18:06:58;;;;;;;9.40;4.32;;;21.00;39.60;;;;;;5070129;22;20045;-81
2022/03/02 18:09:59;;;;;;;9.65;4.32;;;21.10;39.70;;;;;;5031521;28;20057;-81
2022/03/02 18:13:02;;;;;;;7.03;3.70;;;21.30;40.50;;;;;;5016887;28;20068;-81
2022/03/02 18:15:30;;;;;;;;;;;21.10;39.80;;;;;;5015762;28;20046;-81
2022/03/02 18:18:25;;;;;;;6.72;3.55;;;21.00;40.30;;;;;;5026653;28;19921;-84
2022/03/02 18:20:54;;;;;;;7.65;3.85;;;20.90;40.00;;;;;;5010623;28;20115;-83
2022/03/02 18:34:17;;;;;;;6.80;3.72;;;20.60;40.40;;;;;;5028383;28;20081;-85
2022/03/02 18:37:07;;;;;;;9.05;4.25;;;21.00;40.80;;;;;;5019279;28;20041;-88
2022/03/02 18:39:42;;;;;;;7.88;4.53;;;21.10;41.00;;;;;;5026011;28;20102;-84
2022/03/02 18:42:08;;;;;;;9.00;4.15;;;22.50;41.80;;;;;;5031234;28;20162;-84
2022/03/02 18:44:34;;;;;;;9.13;4.32;;;22.40;41.70;;;;;;5038351;28;20468;-83
2022/03/02 18:46:59;;;;;;;9.10;4.20;;;21.10;41.30;;;;;;5029219;28;20548;-83
2022/03/02 18:49:41;;;;;;;10.00;4.50;;;22.10;41.60;;;;;;5027236;28;20046;-85
2022/03/02 18:52:21;;;;;;;7.20;4.13;;;22.20;41.40;;;;;;5028452;28;20464;-85
2022/03/02 18:54:56;;;;;;;8.25;3.70;;;21.20;40.90;;;;;;5036547;28;20083;-86
2022/03/02 18:57:40;;;;;;;6.80;4.18;;;22.00;41.60;;;;;;5014293;28;20397;-84
2022/03/02 19:00:28;;;;;;;7.10;3.80;;;22.60;41.90;;;;;;5020276;28;20048;-84
2022/03/02 19:02:59;;;;;;;8.13;4.28;;;20.10;40.50;;;;;;5021269;28;20045;-83
2022/03/02 19:05:34;;;;;;;6.63;3.40;;;22.30;42.20;;;;;;4985010;28;20071;-83
2022/03/02 19:08:13;;;;;;;6.47;3.53;;;22.50;42.50;;;;;;5036810;28;20041;-82
2022/03/02 19:11:30;;;;;;;7.75;3.85;;;21.80;41.70;;;;;;5029255;28;20065;-83
2022/03/02 19:13:56;;;;;;;7.50;3.83;;;20.70;41.00;;;;;;5017644;28;20097;-81
2022/03/02 19:16:24;;;;;;;8.18;3.42;;;22.00;41.90;;;;;;5023396;28;20080;-82
2022/03/02 19:18:50;;;;;;;6.78;3.90;;;21.00;41.20;;;;;;5019785;28;20103;-82
2022/03/02 19:21:57;;;;;;;7.80;3.55;;;20.80;41.20;;;;;;5023842;28;20408;-82
2022/03/02 19:24:27;;;;;;;7.22;3.30;;;20.90;41.20;;;;;;5016196;28;20049;-82
2022/03/02 19:26:54;;;;;;;6.30;3.05;;;22.50;42.30;;;;;;5014659;28;20065;-81
2022/03/02 19:29:38;;;;;;;7.85;3.50;;;21.30;41.50;;;;;;5014745;28;20501;-82
2022/03/02 19:32:05;;;;;;;7.40;3.78;;;21.00;41.40;;;;;;5002442;28;20485;-82
2022/03/02 19:34:31;;;;;;;7.63;4.18;;;21.00;41.60;;;;;;5015074;28;20042;-82
2022/03/02 19:36:57;;;;;;;9.45;3.97;;;21.00;41.50;;;;;;5015804;28;20057;-82
2022/03/02 19:42:06;;;;;;;7.28;3.78;;;21.00;41.40;;;;;;5020756;28;20116;-81
2022/03/02 19:44:33;;;;;;;9.25;3.47;;;21.00;41.50;;;;;;5035651;28;20049;-81
2022/03/02 19:46:59;;;;;;;7.05;3.58;;;21.00;41.50;;;;;;5006474;28;20049;-81
2022/03/02 19:49:31;;;;;;;7.93;3.80;;;21.00;41.50;;;;;;5016000;28;20056;-78
2022/03/02 19:52:11;;;;;;;6.55;3.33;;;21.10;41.50;;;;;;5015361;28;20120;-80
2022/03/02 20:00:12;;;;;;;5.82;3.00;;;21.00;41.30;;;;;;5699043;22;20257;-80
2022/03/02 20:02:39;;;;;;;5.32;2.60;;;21.10;41.30;;;;;;5051125;28;20053;-80
2022/03/02 20:05:07;;;;;;;5.20;2.88;;;20.70;41.00;;;;;;5054335;28;20088;-80
2022/03/02 20:07:34;;;;;;;4.70;2.70;;;21.10;41.20;;;;;;5048815;28;20083;-79
2022/03/02 20:13:55;;;;;;;4.28;2.30;;;21.00;41.10;;;;;;5003055;28;20046;-80
2022/03/02 20:16:56;;;;;;;5.35;2.58;;;20.80;41.20;;;;;;4992312;28;20065;-80
2022/03/02 20:19:22;;;;;;;5.38;2.80;;;21.30;41.50;;;;;;4971604;28;20746;-80